Tipitapa, Nicaragua
Current Conditions -  °F | °C
As of 12:00 PM on Thursday 23 Oct 2014 (Local Time) from MNMG Reporting Station
Scattered Clouds Scattered Clouds  
Wind Chill: 82°   Ceiling: Unl
Heat Index: 91°   Visibility: 6mi
Dew Point: 77°   Wind: 7mph
Humidity: 84%   Direction: 350°N
Pressure: 29.8"   Gusts: NA
Location:  12.2°N, 86.1°W
Report Text: MNMG 231800Z 35006KT 9999 FEW020CB SCT021 28/25 Q1009 A2982 1AC070 2CI300 CB/NE/E/SE/NW TCU/N/S/SW/W/ TEMPO 7000 -TSRA/VCRA
Loading
Personal Weather Stations






























Interactive Weather Map
Tropical Storm Tracking
New forecast layout! Learn more

10-Day Weather Forecast

Advertisements
Track Severe Weather on mobile